This is the latest recevied weather packets stored in our database for station/object EA5CLU-13. If no packets are shown the sender has not sent any weather packets the latest 10 day(s).
| Time | Temp. | Humidity | Pressure | Rain* | Wind** | Luminosity | Snow |
|---|---|---|---|---|---|---|---|
| 1787476175 | 24.44° C | - | 1019.8 hPa | 0 mm | - | - | - |
| 1787475874 | 25° C | - | 1019.9 hPa | 0 mm | - | - | - |
| 1787475573 | 25.56° C | - | 1020 hPa | 0 mm | - | - | - |
| 1787475273 | 26.11° C | - | 1019.9 hPa | 0 mm | - | - | - |
| 1787474974 | 25° C | - | 1020 hPa | 0 mm | - | - | - |
| 1787474673 | 24.44° C | - | 1020 hPa | 0 mm | - | - | - |
| 1787474373 | 25.56° C | - | 1020 hPa | 0 mm | - | - | - |
| 1787474074 | 24.44° C | - | 1019.9 hPa | 0 mm | - | - | - |
| 1787473774 | 24.44° C | - | 1020 hPa | 0 mm | - | - | - |
| 1787473473 | 24.44° C | - | 1020.1 hPa | 0 mm | - | - | - |
| 1787473173 | 23.89° C | - | 1019.9 hPa | 0 mm | - | - | - |
| 1787472873 | 24.44° C | - | 1019.9 hPa | 0 mm | - | - | - |
| 1787472573 | 23.89° C | - | 1019.9 hPa | 0 mm | - | - | - |
| 1787472273 | 23.89° C | - | 1019.8 hPa | 0 mm | - | - | - |
| 1787471974 | 23.33° C | - | 1019.9 hPa | 0 mm | - | - | - |
| 1787471674 | 23.33° C | - | 1019.7 hPa | 0 mm | - | - | - |
| 1787471374 | 23.33° C | - | 1020.1 hPa | 0 mm | - | - | - |
| 1787471074 | 22.78° C | - | 1019.8 hPa | 0 mm | - | - | - |
| 1787470773 | 22.22° C | - | 1019.9 hPa | 0 mm | - | - | - |
| 1787470472 | 22.22° C | - | 1019.8 hPa | 0 mm | - | - | - |
| 1787470174 | 22.22° C | - | 1019.9 hPa | 0 mm | - | - | - |
| 1787469574 | 22.22° C | - | 1019.8 hPa | 0 mm | - | - | - |
| 1787469274 | 22.22° C | - | 1019.9 hPa | 0 mm | - | - | - |
| 1787468673 | 22.22° C | - | 1020 hPa | 0 mm | - | - | - |
| 1787468375 | 26.67° C | - | 1017.4 hPa | 0 mm | - | - | - |
* Rain latest hour (hover to see other rain measurements)
** Current wind speed in m/s (hover to see current wind gust speed)